Time;durP1;ratioP1;P1;durP2;ratioP2;P2;SDS_P1;SDS_P2;PMS_P1;PMS_P2;Temp;Humidity;BMP_temperature;BMP_pressure;BME280_temperature;BME280_humidity;BME280_pressure;Samples;Min_cycle;Max_cycle;Signal;HPM_P1;HPM_P2
2023/07/26 00:02:02;;;;;;;4.23;2.27;;;;;;;13.73;100.00;100992.72;4943815;29;20095;-95
2023/07/26 00:04:28;;;;;;;4.45;2.00;;;;;;;13.73;100.00;100992.72;4947645;29;20034;-96
2023/07/26 00:06:55;;;;;;;3.33;1.97;;;;;;;13.89;100.00;101017.72;4947557;29;20119;-96
2023/07/26 00:09:21;;;;;;;5.18;2.00;;;;;;;13.74;100.00;100998.91;4948390;29;20035;-96
2023/07/26 00:11:47;;;;;;;5.47;2.40;;;;;;;13.85;100.00;101013.16;4951337;29;20095;-95
2023/07/26 00:14:18;;;;;;;4.70;2.22;;;;;;;13.89;100.00;101019.59;4948977;29;20055;-96
2023/07/26 00:16:49;;;;;;;5.75;2.00;;;;;;;13.72;100.00;100980.31;4957155;29;20020;-95
2023/07/26 00:19:27;;;;;;;3.75;2.17;;;;;;;13.93;99.73;101026.88;4941448;29;20014;-96
2023/07/26 00:21:53;;;;;;;5.35;2.47;;;;;;;14.01;100.00;101038.13;4952602;29;20062;-95
2023/07/26 00:24:23;;;;;;;4.27;2.40;;;;;;;13.68;99.56;100986.53;4959441;29;20024;-95
2023/07/26 00:27:02;;;;;;;5.23;2.50;;;;;;;13.88;100.00;101028.75;4952560;29;20283;-96
2023/07/26 00:29:28;;;;;;;2.83;2.15;;;;;;;13.86;100.00;101030.94;4954508;29;20039;-95
2023/07/26 00:31:55;;;;;;;3.17;2.58;;;;;;;13.56;100.00;100989.53;4955035;29;20111;-95
2023/07/26 00:34:21;;;;;;;6.78;2.35;;;;;;;13.48;100.00;100978.28;4936393;29;20040;-95
2023/07/26 00:36:47;;;;;;;4.88;2.67;;;;;;;13.76;100.00;101026.38;4938108;29;20039;-95
2023/07/26 00:39:15;;;;;;;4.72;2.47;;;;;;;13.48;100.00;100993.59;4954563;29;20024;-96
2023/07/26 00:41:45;;;;;;;5.03;2.50;;;;;;;13.39;100.00;100973.69;4955579;29;20019;-95
2023/07/26 00:44:11;;;;;;;4.65;2.65;;;;;;;13.37;100.00;100986.59;4939324;29;20035;-96
2023/07/26 00:46:37;;;;;;;6.33;2.63;;;;;;;13.45;100.00;101005.72;4953557;29;20043;-95
2023/07/26 00:49:05;;;;;;;4.57;2.60;;;;;;;13.52;100.00;101026.97;4954758;29;20024;-94
2023/07/26 00:51:31;;;;;;;4.78;2.50;;;;;;;13.52;100.00;101032.38;4956302;28;20055;-96
2023/07/26 00:53:58;;;;;;;3.80;2.40;;;;;;;13.35;100.00;101011.09;4954602;29;20016;-96
2023/07/26 00:56:29;;;;;;;3.10;2.60;;;;;;;13.08;100.00;100977.25;4954842;29;20047;-96
2023/07/26 00:59:02;;;;;;;3.90;2.73;;;;;;;13.05;100.00;100974.28;4954270;29;20271;-96
2023/07/26 01:01:31;;;;;;;2.95;2.58;;;;;;;13.32;100.00;101027.81;4954708;29;20067;-96
2023/07/26 01:03:59;;;;;;;3.33;2.80;;;;;;;13.00;100.00;100988.53;4938687;29;20480;-96
2023/07/26 01:06:49;;;;;;;4.45;2.90;;;;;;;13.22;100.00;101028.63;4938173;29;20019;-95
2023/07/26 01:09:31;;;;;;;3.30;2.88;;;;;;;13.17;100.00;101025.94;4952056;29;20079;-96
2023/07/26 01:12:10;;;;;;;5.57;2.85;;;;;;;13.13;100.00;101030.22;4957471;29;20038;-95
2023/07/26 01:14:59;;;;;;;3.63;3.03;;;;;;;12.75;100.00;100982.09;4955925;29;20062;-96
2023/07/26 01:17:30;;;;;;;4.53;2.90;;;;;;;12.63;100.00;100968.09;4956384;29;20034;-96
2023/07/26 01:20:21;;;;;;;5.10;3.17;;;;;;;12.61;100.00;100981.81;4956651;29;20087;-96
2023/07/26 02:00:31;;;;;;;3.85;3.03;;;;;;;12.65;100.00;100982.91;4176481;23;20056;-96
2023/07/26 02:04:05;;;;;;;4.95;3.65;;;;;;;12.99;100.00;101027.25;4961300;29;20015;-95
2023/07/26 02:06:43;;;;;;;3.15;2.90;;;;;;;12.50;100.00;100966.75;4942120;29;20043;-96
2023/07/26 02:09:27;;;;;;;6.57;3.38;;;;;;;12.46;100.00;100976.41;4941937;29;20032;-96
2023/07/26 02:11:54;;;;;;;4.45;3.55;;;;;;;12.35;100.00;100971.00;4940531;29;20100;-96
2023/07/26 02:14:22;;;;;;;3.75;3.30;;;;;;;12.47;100.00;100997.66;4942137;29;20080;-96
2023/07/26 02:17:01;;;;;;;8.40;3.73;;;;;;;12.52;100.00;100996.84;4940713;29;20035;-96
2023/07/26 02:19:29;;;;;;;3.97;3.27;;;;;;;12.63;100.00;101009.25;4941399;29;20284;-96
2023/07/26 03:47:33;;;;;;;4.27;3.33;;;;;;;11.55;100.00;101015.00;4956462;29;20062;-96
2023/07/26 03:51:08;;;;;;;3.87;3.13;;;;;;;11.29;100.00;101005.97;4957090;29;20319;-96
2023/07/26 03:53:56;;;;;;;4.05;2.63;;;;;;;11.23;100.00;101020.44;4954279;29;20035;-96
2023/07/26 03:57:13;;;;;;;4.15;3.05;;;;;;;11.05;100.00;100996.44;4957610;29;20056;-96
2023/07/26 03:59:51;;;;;;;4.13;3.00;;;;;;;10.99;100.00;100992.09;4958605;29;20016;-96
2023/07/26 04:03:00;;;;;;;3.40;3.10;;;;;;;10.98;100.00;101003.88;4956516;29;20031;-96
2023/07/26 04:05:26;;;;;;;3.92;3.05;;;;;;;10.95;100.00;100991.00;4955898;29;20032;-96
2023/07/26 04:07:57;;;;;;;5.32;2.88;;;;;;;10.87;100.00;100994.16;4940917;29;20096;-96
2023/07/26 04:10:34;;;;;;;3.80;3.10;;;;;;;10.81;100.00;100985.25;4957062;29;20035;-96
2023/07/26 04:13:24;;;;;;;4.70;2.83;;;;;;;10.86;100.00;100995.19;4958362;29;20042;-96
2023/07/26 04:15:53;;;;;;;4.32;3.10;;;;;;;11.13;100.00;101039.94;4955030;29;20035;-96
2023/07/26 04:18:28;;;;;;;3.67;2.75;;;;;;;11.02;100.00;101029.13;4959400;29;20101;-96
2023/07/26 04:21:23;;;;;;;4.75;3.40;;;;;;;10.75;100.00;100987.09;4959676;29;20028;-96
2023/07/26 04:23:55;;;;;;;7.82;3.20;;;;;;;10.81;100.00;100997.84;4956187;29;20046;-96
2023/07/26 04:26:58;;;;;;;3.10;2.80;;;;;;;11.08;100.00;101038.00;4960663;29;20039;-96
2023/07/26 04:29:29;;;;;;;4.38;3.00;;;;;;;11.12;100.00;101044.47;4956588;29;20079;-96
2023/07/26 04:31:56;;;;;;;3.57;2.70;;;;;;;11.04;100.00;101018.94;4939063;29;20024;-96
2023/07/26 04:34:25;;;;;;;4.45;3.25;;;;;;;11.13;100.00;101013.13;4955893;29;20032;-96
2023/07/26 04:36:55;;;;;;;8.85;3.33;;;;;;;11.42;100.00;101042.28;4955621;29;20036;-96
2023/07/26 04:39:34;;;;;;;5.28;3.42;;;;;;;11.41;100.00;101020.00;4956055;29;20107;-96
2023/07/26 04:42:12;;;;;;;5.43;3.50;;;;;;;11.21;100.00;100983.13;4955062;29;20032;-96
2023/07/26 04:44:52;;;;;;;4.18;3.38;;;;;;;11.59;100.00;101037.56;4952992;29;20107;-96
2023/07/26 04:47:31;;;;;;;6.55;3.55;;;;;;;11.36;100.00;101002.00;4935001;29;20043;-96
2023/07/26 04:50:03;;;;;;;4.57;3.40;;;;;;;11.48;100.00;101009.88;4951735;29;20023;-96
2023/07/26 04:52:37;;;;;;;3.97;3.57;;;;;;;11.70;100.00;101037.63;4953143;29;20032;-96
2023/07/26 04:55:05;;;;;;;5.30;3.73;;;;;;;11.76;100.00;101044.63;4951830;29;20355;-96
2023/07/26 04:57:33;;;;;;;6.68;3.80;;;;;;;11.62;100.00;101009.38;4951453;29;20035;-96
2023/07/26 04:59:59;;;;;;;5.43;3.60;;;;;;;11.79;100.00;101014.59;4949394;29;20028;-96
2023/07/26 05:02:26;;;;;;;6.13;4.40;;;;;;;12.19;100.00;101018.56;4950098;29;20040;-96
2023/07/26 05:04:53;;;;;;;6.80;4.40;;;;;;;13.07;100.00;101042.06;4931823;29;20023;-96
2023/07/26 05:07:21;;;;;;;5.47;4.05;;;;;;;13.64;100.00;100989.00;4949682;29;20019;-96
2023/07/26 05:09:49;;;;;;;5.50;4.10;;;;;;;14.48;100.00;100992.88;4933645;29;20036;-96
2023/07/26 05:13:02;;;;;;;11.07;4.35;;;;;;;15.63;100.00;101055.63;4957166;29;20023;-96
2023/07/26 05:16:32;;;;;;;4.80;3.70;;;;;;;16.59;100.00;101043.91;4938708;29;20032;-95
2023/07/26 05:19:08;;;;;;;7.83;4.10;;;;;;;17.02;99.59;101015.94;4908389;29;20059;-96
2023/07/26 05:29:47;;;;;;;4.93;3.30;;;;;;;18.26;86.24;101043.38;5272947;23;20109;-96
2023/07/26 05:35:41;;;;;;;6.82;3.50;;;;;;;18.95;81.11;101051.63;4951172;28;20122;-95
2023/07/26 05:38:09;;;;;;;6.83;3.67;;;;;;;18.99;80.28;101030.91;4942592;29;20040;-95
2023/07/26 05:40:34;;;;;;;10.07;3.78;;;;;;;19.25;81.06;101044.63;4955277;29;20024;-95
2023/07/26 05:43:01;;;;;;;7.83;3.80;;;;;;;19.17;78.67;101012.78;4937545;29;20024;-95
2023/07/26 05:45:27;;;;;;;8.70;3.83;;;;;;;19.39;78.31;101019.28;4942563;29;20024;-96
2023/07/26 05:47:52;;;;;;;7.57;3.90;;;;;;;19.24;78.94;101040.31;4951307;29;20075;-95
2023/07/26 05:50:17;;;;;;;5.40;4.07;;;;;;;19.15;80.14;101053.03;4937952;29;20028;-95
2023/07/26 05:52:43;;;;;;;6.00;4.20;;;;;;;18.98;82.13;101040.16;4936796;29;20641;-96
2023/07/26 05:55:09;;;;;;;8.15;3.83;;;;;;;18.99;82.04;101050.69;4940518;29;20035;-96
2023/07/26 05:57:34;;;;;;;5.80;4.20;;;;;;;18.96;81.79;101028.81;4919996;29;20038;-96
2023/07/26 06:00:00;;;;;;;9.83;4.60;;;;;;;18.38;82.56;101042.06;4936724;29;20024;-96
2023/07/26 06:02:25;;;;;;;8.67;4.10;;;;;;;17.57;85.47;101038.78;4937867;29;20091;-96
2023/07/26 06:04:52;;;;;;;7.57;4.23;;;;;;;17.12;90.21;101052.84;4934930;29;20291;-95
2023/07/26 06:07:18;;;;;;;6.43;4.13;;;;;;;16.54;94.94;101018.84;4935760;29;20445;-96
2023/07/26 06:09:44;;;;;;;10.60;4.73;;;;;;;16.47;96.87;101044.34;4937061;29;20103;-96
2023/07/26 06:12:10;;;;;;;9.80;4.97;;;;;;;16.37;98.53;101028.28;4936775;29;20032;-96
2023/07/26 06:14:36;;;;;;;11.60;5.70;;;;;;;16.49;98.39;101063.00;4938406;29;20399;-94
2023/07/26 06:30:50;;;;;;;6.75;5.38;;;;;;;16.16;100.00;101079.09;5023223;23;20119;-95
2023/07/26 06:33:20;;;;;;;7.90;5.20;;;;;;;16.34;100.00;101104.56;4933150;29;20036;-95
2023/07/26 06:35:45;;;;;;;7.95;5.53;;;;;;;16.16;100.00;101088.03;4945141;29;20114;-95
2023/07/26 06:38:10;;;;;;;9.48;5.57;;;;;;;16.04;100.00;101084.94;4940250;29;20028;-95
2023/07/26 06:40:36;;;;;;;7.90;5.47;;;;;;;16.09;100.00;101098.38;4938765;29;20541;-95
2023/07/26 06:43:02;;;;;;;10.87;5.73;;;;;;;16.07;100.00;101111.34;4937618;29;20428;-95
2023/07/26 06:45:27;;;;;;;14.88;6.10;;;;;;;15.71;100.00;101092.81;4936782;28;20031;-96
2023/07/26 06:47:55;;;;;;;11.37;6.63;;;;;;;15.49;100.00;101107.63;4939999;29;20039;-95
2023/07/26 06:50:21;;;;;;;11.82;6.70;;;;;;;15.14;100.00;101077.94;4940590;29;20036;-96
2023/07/26 06:52:46;;;;;;;11.97;7.27;;;;;;;14.95;100.00;101077.81;4942385;29;20483;-96
2023/07/26 06:55:27;;;;;;;17.80;7.63;;;;;;;14.94;100.00;101103.19;4953441;29;20108;-96
2023/07/26 06:58:04;;;;;;;13.75;7.90;;;;;;;14.57;100.00;101068.59;4957084;29;20039;-96
2023/07/26 07:00:33;;;;;;;11.73;8.10;;;;;;;14.38;100.00;101070.06;4960052;28;20047;-96
2023/07/26 07:03:15;;;;;;;15.90;8.30;;;;;;;14.40;100.00;101080.53;4956527;29;20231;-96
2023/07/26 07:05:44;;;;;;;13.23;8.33;;;;;;;14.40;100.00;101083.25;4950498;29;20295;-95
2023/07/26 07:08:12;;;;;;;18.30;9.27;;;;;;;14.35;100.00;101084.06;4943105;29;20067;-94
2023/07/26 07:10:39;;;;;;;13.82;8.82;;;;;;;14.43;100.00;101098.88;4949975;29;20044;-94
2023/07/26 07:13:04;;;;;;;14.60;8.63;;;;;;;14.20;100.00;101089.53;4941984;29;20111;-94
2023/07/26 07:15:30;;;;;;;19.67;9.80;;;;;;;14.16;100.00;101100.03;4937942;29;20066;-94
2023/07/26 07:17:56;;;;;;;18.00;9.60;;;;;;;14.16;100.00;101124.28;4937499;29;20457;-94
2023/07/26 07:20:21;;;;;;;16.07;9.50;;;;;;;14.05;100.00;101138.88;4939939;29;20028;-94
2023/07/26 07:22:46;;;;;;;17.17;9.77;;;;;;;13.96;100.00;101148.63;4939102;29;20140;-94
2023/07/26 07:25:13;;;;;;;20.30;9.70;;;;;;;13.89;100.00;101159.66;4936693;29;20373;-95
2023/07/26 07:27:39;;;;;;;19.95;10.30;;;;;;;13.74;100.00;101153.22;4939907;29;20047;-95
2023/07/26 07:30:05;;;;;;;17.35;10.27;;;;;;;13.58;100.00;101138.97;4944035;29;20032;-94
2023/07/26 07:32:31;;;;;;;19.57;10.63;;;;;;;13.45;100.00;101129.56;4948254;29;20032;-94
2023/07/26 07:34:56;;;;;;;18.40;10.30;;;;;;;13.67;100.00;101160.78;4940556;29;20283;-95
2023/07/26 07:37:23;;;;;;;18.93;11.43;;;;;;;13.79;100.00;101171.25;4939523;29;20653;-95
2023/07/26 07:39:49;;;;;;;20.13;11.23;;;;;;;13.98;100.00;101173.38;4942836;28;20028;-96
2023/07/26 07:42:15;;;;;;;18.67;11.02;;;;;;;13.84;100.00;101116.59;4943956;28;20098;-96
2023/07/26 07:44:40;;;;;;;20.03;11.47;;;;;;;13.92;100.00;101126.78;4947776;29;20032;-95
2023/07/26 07:47:06;;;;;;;15.88;10.15;;;;;;;14.13;100.00;101129.44;4950886;29;20539;-95
2023/07/26 07:49:33;;;;;;;19.90;11.20;;;;;;;14.38;100.00;101161.69;4951564;29;20024;-96
2023/07/26 07:52:16;;;;;;;;;;;;;;;;;;;;;
2023/07/26 07:54:45;;;;;;;21.25;12.05;;;;;;;14.43;100.00;101116.91;4948958;29;20066;-96
2023/07/26 07:57:28;;;;;;;19.55;11.65;;;;;;;14.88;100.00;101144.78;4956078;29;20032;-96
2023/07/26 07:59:56;;;;;;;19.38;10.77;;;;;;;14.74;100.00;101114.09;4952045;28;20193;-96
2023/07/26 08:02:26;;;;;;;21.77;12.27;;;;;;;14.98;100.00;101117.72;4954861;29;20044;-95
2023/07/26 08:04:58;;;;;;;16.70;11.43;;;;;;;15.51;100.00;101167.56;4956819;29;20050;-96
2023/07/26 08:07:39;;;;;;;17.40;10.23;;;;;;;15.38;100.00;101116.88;4954315;29;20095;-96
2023/07/26 08:10:44;;;;;;;20.63;10.53;;;;;;;15.86;100.00;101159.44;4937000;29;20040;-96
2023/07/26 08:13:14;;;;;;;14.53;9.70;;;;;;;16.00;100.00;101151.44;4959709;29;20279;-96
2023/07/26 09:06:52;;;;;;;;;;;;;;;;;;;;;
2023/07/26 09:10:18;;;;;;;9.60;5.03;;;;;;;19.80;96.43;101111.38;4920720;29;20088;-95
2023/07/26 09:13:22;;;;;;;6.33;5.20;;;;;;;20.56;85.53;101157.72;4923643;29;20024;-95
2023/07/26 09:16:03;;;;;;;;;;;;;;;;;;;;;
2023/07/26 09:18:42;;;;;;;;;;;;;;;;;;;;;
2023/07/26 09:21:08;;;;;;;6.75;4.65;;;;;;;20.82;77.77;101130.53;4929572;29;20124;-93
2023/07/26 09:24:12;;;;;;;8.32;5.32;;;;;;;20.82;83.55;101121.56;4933201;29;20036;-96
2023/07/26 09:26:49;;;;;;;6.32;4.95;;;;;;;20.31;78.87;101110.28;4928757;29;20063;-95
2023/07/26 09:29:17;;;;;;;6.18;4.82;;;;;;;20.00;75.50;101111.97;4929865;28;20043;-96
2023/07/26 09:31:43;;;;;;;7.60;4.47;;;;;;;19.87;77.42;101131.88;4928681;29;20108;-96
2023/07/26 09:34:16;;;;;;;8.90;4.40;;;;;;;19.60;78.45;101118.19;4930123;29;20291;-94
2023/07/26 09:37:00;;;;;;;7.70;4.13;;;;;;;19.79;81.21;101147.03;4923297;29;20396;-95
2023/07/26 09:39:29;;;;;;;5.78;3.92;;;;;;;20.56;79.81;101149.53;4934490;29;20027;-95
2023/07/26 09:42:05;;;;;;;8.65;4.18;;;;;;;21.64;72.08;101145.34;4938815;29;20031;-95
2023/07/26 09:44:33;;;;;;;5.80;4.00;;;;;;;22.21;66.27;101152.34;4940425;29;20046;-96
2023/07/26 09:46:59;;;;;;;4.53;3.63;;;;;;;22.54;60.51;101148.16;4939600;29;20019;-95
2023/07/26 09:49:29;;;;;;;5.47;3.67;;;;;;;22.48;59.98;101105.78;4941997;29;20032;-96
2023/07/26 09:51:57;;;;;;;6.30;4.00;;;;;;;22.31;57.91;101123.03;4943496;29;20064;-96
2023/07/26 09:54:43;;;;;;;;;;;;;;;;;;;;;
2023/07/26 09:57:10;;;;;;;4.45;3.03;;;;;;;21.82;59.53;101126.22;4935297;29;20067;-95
2023/07/26 09:59:39;;;;;;;2.78;2.40;;;;;;;21.73;55.48;101137.13;4936429;29;20017;-96
2023/07/26 10:02:09;;;;;;;2.10;1.85;;;;;;;21.49;49.37;101100.31;4925625;29;20036;-95
2023/07/26 10:04:50;;;;;;;1.50;1.40;;;;;;;21.84;52.31;101105.66;4923665;29;20028;-94
2023/07/26 10:07:16;;;;;;;4.10;2.20;;;;;;;21.81;48.21;101109.03;4926353;29;20363;-95
2023/07/26 10:09:47;;;;;;;2.10;1.50;;;;;;;22.09;47.87;101119.50;4930339;29;20032;-96
2023/07/26 10:12:13;;;;;;;2.10;1.90;;;;;;;21.88;48.55;101122.16;4926255;29;20086;-95
2023/07/26 10:14:39;;;;;;;3.20;2.25;;;;;;;21.77;51.50;101113.53;4930310;29;20032;-96
2023/07/26 10:17:09;;;;;;;6.40;2.17;;;;;;;22.03;51.40;101099.00;4929087;29;20064;-96
2023/07/26 10:19:38;;;;;;;3.95;2.67;;;;;;;22.49;52.83;101113.63;4930346;29;20100;-96
2023/07/26 10:22:08;;;;;;;5.30;2.40;;;;;;;22.77;50.40;101124.03;4929037;29;20056;-96
2023/07/26 10:24:37;;;;;;;3.38;2.63;;;;;;;22.90;52.20;101143.22;4942083;29;20020;-96
2023/07/26 10:36:41;;;;;;;4.03;3.58;;;;;;;23.29;50.76;101094.66;4939701;29;20051;-96
2023/07/26 10:39:09;;;;;;;6.72;3.58;;;;;;;23.34;52.91;101113.56;4942198;29;20020;-96
2023/07/26 10:49:44;;;;;;;6.15;3.88;;;;;;;23.24;51.69;101122.19;5182795;23;20128;-96
2023/07/26 10:52:12;;;;;;;5.88;3.58;;;;;;;22.87;54.14;101090.06;4953090;29;20076;-96
2023/07/26 10:55:18;;;;;;;4.75;3.90;;;;;;;22.87;53.32;101111.91;4955587;29;20055;-96
2023/07/26 10:58:22;;;;;;;6.93;3.80;;;;;;;22.54;54.94;101110.72;4955790;29;20027;-96
2023/07/26 11:01:37;;;;;;;9.20;3.97;;;;;;;22.62;56.51;101097.34;4951673;29;20378;-96
2023/07/26 11:14:35;;;;;;;5.30;3.70;;;;;;;23.55;51.80;101088.88;4956603;23;20077;-95
2023/07/26 11:42:57;;;;;;;4.15;3.30;;;;;;;24.18;46.96;101125.28;5000249;23;20063;-96
2023/07/26 11:50:54;;;;;;;4.20;2.73;;;;;;;24.44;43.78;101135.06;4956975;29;20493;-95
2023/07/26 11:53:32;;;;;;;3.43;2.80;;;;;;;24.53;44.63;101105.59;4959051;29;20359;-96
2023/07/26 13:43:34;;;;;;;4.00;2.30;;;;;;;23.56;43.74;101161.59;4963620;23;20059;-96
2023/07/26 13:46:10;;;;;;;4.05;2.38;;;;;;;23.33;45.14;101157.63;5040406;23;20044;-96
2023/07/26 13:54:23;;;;;;;3.75;2.50;;;;;;;25.35;41.59;101180.31;5574144;23;20063;-96
2023/07/26 14:31:26;;;;;;;2.93;2.47;;;;;;;25.16;41.42;101159.06;5410858;23;20700;-96
2023/07/26 16:35:55;;;;;;;3.80;2.80;;;;;;;27.08;32.32;101074.75;5429030;23;20591;-96
2023/07/26 23:34:30;;;;;;;5.23;3.37;;;;;;;17.12;91.98;100903.16;4744463;23;21164;-96
2023/07/26 23:37:32;;;;;;;6.68;3.35;;;;;;;16.74;94.40;100856.19;4958834;29;20056;-95
2023/07/26 23:41:03;;;;;;;6.40;3.40;;;;;;;16.78;92.63;100859.91;4950628;29;20026;-96
2023/07/26 23:49:19;;;;;;;6.35;3.50;;;;;;;16.07;100.00;100868.09;5584960;23;20043;-96
2023/07/26 23:56:59;;;;;;;6.68;4.00;;;;;;;15.39;100.00;100864.69;4990971;23;20048;-96
2023/07/26 23:59:26;;;;;;;6.50;3.80;;;;;;;15.40;100.00;100893.31;4949725;29;20035;-96
